createdAt,value
2022-12-27T00:02:00.539Z,97467.72
2022-12-27T00:04:27.500Z,97489.63
2022-12-27T00:06:54.154Z,97494.25
2022-12-27T00:09:20.774Z,97477.63
2022-12-27T00:11:47.534Z,97500.63
2022-12-27T00:14:14.159Z,97522.22
2022-12-27T00:16:40.781Z,97517.38
2022-12-27T00:19:07.422Z,97524.38
2022-12-27T00:21:34.049Z,97523.53
2022-12-27T00:24:00.639Z,97532.63
2022-12-27T00:26:29.335Z,97525.59
2022-12-27T00:28:56.128Z,97558.59
2022-12-27T00:31:23.310Z,97545.34
2022-12-27T00:33:50.964Z,97552.13
2022-12-27T00:36:19.173Z,97567.81
2022-12-27T00:38:45.857Z,97547.97
2022-12-27T00:41:12.432Z,97559.69
2022-12-27T00:43:38.937Z,97558.72
2022-12-27T00:46:05.619Z,97582.81
2022-12-27T00:48:32.366Z,97597.69
2022-12-27T00:51:12.410Z,97575.16
2022-12-27T00:53:39.177Z,97606.69
2022-12-27T00:56:09.893Z,97641.78
2022-12-27T00:58:40.655Z,97630.94
2022-12-27T01:01:18.856Z,97636.00
2022-12-27T01:03:45.790Z,97636.63
2022-12-27T01:06:14.278Z,97633.97
2022-12-27T01:08:40.894Z,97643.75
2022-12-27T01:11:07.779Z,97597.25
2022-12-27T01:13:34.507Z,97617.09
2022-12-27T01:16:01.146Z,97637.09
2022-12-27T01:18:28.407Z,97641.53
2022-12-27T01:20:54.986Z,97618.50
2022-12-27T01:23:21.583Z,97656.38
2022-12-27T01:25:48.130Z,97679.03
2022-12-27T01:28:14.673Z,97683.69
2022-12-27T01:30:41.357Z,97657.13
2022-12-27T01:33:07.951Z,97660.78
2022-12-27T01:35:34.512Z,97658.94
2022-12-27T01:38:01.043Z,97683.91
2022-12-27T01:40:27.560Z,97679.28
2022-12-27T01:42:54.078Z,97696.69
2022-12-27T01:45:27.972Z,97688.00
2022-12-27T01:47:56.481Z,97718.97
2022-12-27T01:50:34.948Z,97718.97
2022-12-27T01:53:17.737Z,97722.56
2022-12-27T01:55:51.801Z,97718.28
2022-12-27T01:58:31.400Z,97729.28
2022-12-27T02:00:58.040Z,97747.03
2022-12-27T02:03:40.598Z,97731.72
2022-12-27T02:06:08.732Z,97733.34
2022-12-27T02:08:46.773Z,97726.50
2022-12-27T02:11:13.438Z,97725.22
2022-12-27T02:13:42.516Z,97715.47
2022-12-27T02:16:16.483Z,97704.78
2022-12-27T02:18:43.503Z,97744.16
2022-12-27T02:21:26.700Z,97753.44
2022-12-27T02:24:21.040Z,97740.78
2022-12-27T02:27:24.889Z,97757.97
2022-12-27T02:29:52.862Z,97758.09
2022-12-27T02:32:38.287Z,97770.03
2022-12-27T02:35:18.720Z,97771.75
2022-12-27T02:37:51.839Z,97787.16
2022-12-27T02:40:19.009Z,97763.19
2022-12-27T02:42:46.003Z,97799.22
2022-12-27T02:45:18.211Z,97810.41
2022-12-27T02:47:45.561Z,97793.59
2022-12-27T02:50:12.652Z,97785.44
2022-12-27T02:52:52.273Z,97825.69
2022-12-27T02:55:29.281Z,97829.00
2022-12-27T02:58:19.095Z,97830.84
2022-12-27T03:00:54.339Z,97826.75
2022-12-27T03:03:56.272Z,97831.59
2022-12-27T03:06:38.726Z,97820.69
2022-12-27T03:09:10.861Z,97836.75
2022-12-27T03:11:45.165Z,97806.63
2022-12-27T03:14:31.215Z,97840.41
2022-12-27T03:17:00.706Z,97829.63
2022-12-27T03:19:44.582Z,97843.31
2022-12-27T03:22:11.125Z,97839.19
2022-12-27T03:24:38.030Z,97847.81
2022-12-27T03:27:10.912Z,97844.97
2022-12-27T03:29:37.670Z,97874.69
2022-12-27T03:32:06.503Z,97859.16
2022-12-27T03:34:35.333Z,97856.56
2022-12-27T03:37:04.481Z,97867.94
2022-12-27T03:39:31.664Z,97878.72
2022-12-27T03:42:00.794Z,97887.03
2022-12-27T03:44:27.442Z,97871.72
2022-12-27T03:47:04.011Z,97873.56
2022-12-27T03:49:43.989Z,97891.72
2022-12-27T03:52:33.574Z,97877.91
2022-12-27T03:55:00.098Z,97917.91
2022-12-27T03:57:26.930Z,97904.41
2022-12-27T03:59:53.641Z,97910.88
2022-12-27T04:02:20.572Z,97907.06
2022-12-27T04:04:47.318Z,97923.03
2022-12-27T04:07:13.919Z,97927.97
2022-12-27T04:09:40.653Z,97930.47
2022-12-27T04:12:07.278Z,97927.38
2022-12-27T04:14:33.937Z,97910.22
2022-12-27T04:17:00.463Z,97934.19
2022-12-27T04:19:27.074Z,97957.19
2022-12-27T04:21:53.713Z,97942.44
2022-12-27T04:24:20.392Z,97949.94
2022-12-27T04:26:47.007Z,97944.88
2022-12-27T04:29:13.594Z,97955.53
2022-12-27T04:31:40.320Z,97945.50
2022-12-27T04:34:07.051Z,97964.75
2022-12-27T04:36:33.604Z,97944.31
2022-12-27T04:39:00.169Z,97978.19
2022-12-27T04:41:26.731Z,97935.88
2022-12-27T04:43:53.462Z,97982.56
2022-12-27T04:46:24.529Z,97956.16
2022-12-27T04:48:51.134Z,97974.78
2022-12-27T04:51:17.745Z,97960.28
2022-12-27T04:53:44.332Z,97952.97
2022-12-27T04:56:11.049Z,97981.38
2022-12-27T04:58:37.711Z,97986.47
2022-12-27T05:01:09.079Z,97980.34
2022-12-27T05:03:38.924Z,97950.00
2022-12-27T05:06:06.116Z,97991.47
2022-12-27T05:08:32.750Z,97979.03
2022-12-27T05:10:59.347Z,97990.25
2022-12-27T05:13:25.860Z,97964.94
2022-12-27T05:15:52.470Z,97949.19
2022-12-27T05:18:19.018Z,97997.81
2022-12-27T05:20:45.530Z,97991.50
2022-12-27T05:23:12.076Z,97989.03
2022-12-27T05:25:42.757Z,97990.66
2022-12-27T05:28:10.404Z,98007.88
2022-12-27T05:30:37.757Z,97994.59
2022-12-27T05:33:04.620Z,97990.31
2022-12-27T05:35:31.188Z,98019.13
2022-12-27T05:37:57.822Z,98010.13
2022-12-27T05:40:24.544Z,98020.56
2022-12-27T05:42:51.425Z,98025.44
2022-12-27T05:45:18.275Z,98024.03
2022-12-27T05:47:44.938Z,98018.09
2022-12-27T05:50:11.844Z,98020.56
2022-12-27T05:52:41.141Z,98020.97
2022-12-27T05:55:08.471Z,98036.91
2022-12-27T05:57:35.108Z,98022.81
2022-12-27T06:00:01.992Z,97998.94
2022-12-27T06:02:29.326Z,98026.91
2022-12-27T06:04:56.072Z,98038.53
2022-12-27T06:07:22.607Z,98007.50
2022-12-27T06:09:49.340Z,98009.97
2022-12-27T06:12:15.910Z,98033.03
2022-12-27T06:14:42.579Z,98017.72
2022-12-27T06:17:09.115Z,98035.88
2022-12-27T06:19:35.845Z,98026.25
2022-12-27T06:22:02.529Z,98030.75
2022-12-27T06:24:30.097Z,98027.91
2022-12-27T06:26:56.621Z,98041.19
2022-12-27T06:29:23.116Z,97994.03
2022-12-27T06:31:49.714Z,98029.97
2022-12-27T06:34:16.265Z,98039.56
2022-12-27T06:36:42.803Z,98050.38
2022-12-27T06:39:09.285Z,98073.69
2022-12-27T06:41:35.812Z,98075.31
2022-12-27T06:44:02.447Z,98043.44
2022-12-27T06:46:29.051Z,98031.78
2022-12-27T06:48:55.768Z,98095.75
2022-12-27T06:51:22.313Z,98073.47
2022-12-27T06:53:48.844Z,98088.38
2022-12-27T06:56:20.412Z,98086.72
2022-12-27T06:58:47.147Z,98099.81
2022-12-27T07:01:21.462Z,98072.44
2022-12-27T07:03:54.506Z,98078.19
2022-12-27T07:06:21.391Z,98089.41
2022-12-27T07:08:48.508Z,98077.75
2022-12-27T07:11:15.586Z,98090.44
2022-12-27T07:13:44.711Z,98086.34
2022-12-27T07:16:12.647Z,98084.09
2022-12-27T07:18:39.355Z,98097.38
2022-12-27T07:21:10.916Z,98085.31
2022-12-27T07:23:37.921Z,98107.41
2022-12-27T07:26:05.431Z,98092.06
2022-12-27T07:28:32.358Z,98114.09
2022-12-27T07:30:59.138Z,98104.53
2022-12-27T07:33:25.769Z,98107.19
2022-12-27T07:35:59.248Z,98111.88
2022-12-27T07:38:25.826Z,98102.28
2022-12-27T07:40:52.405Z,98070.63
2022-12-27T07:43:18.917Z,98104.53
2022-12-27T07:45:45.493Z,98098.81
2022-12-27T07:48:12.046Z,98105.13
2022-12-27T07:50:38.553Z,98105.56
2022-12-27T07:53:05.021Z,98100.25
2022-12-27T07:55:31.563Z,98078.19
2022-12-27T07:57:58.299Z,98109.63
2022-12-27T08:00:24.919Z,98081.03
2022-12-27T08:02:51.449Z,98093.69
2022-12-27T08:05:21.440Z,98099.41
2022-12-27T08:07:50.918Z,98131.28
2022-12-27T08:10:17.634Z,98098.19
2022-12-27T08:12:44.741Z,98108.00
2022-12-27T08:15:11.786Z,98109.00
2022-12-27T08:17:38.320Z,98135.38
2022-12-27T08:20:05.881Z,98117.78
2022-12-27T08:22:32.523Z,98102.47
2022-12-27T08:24:59.127Z,98130.03
2022-12-27T08:27:25.755Z,98121.88
2022-12-27T08:29:52.325Z,98129.22
2022-12-27T08:32:18.976Z,98121.22
2022-12-27T08:34:45.510Z,98125.09
2022-12-27T08:37:12.097Z,98133.47
2022-12-27T08:39:38.657Z,98110.19
2022-12-27T08:42:05.306Z,98119.94
2022-12-27T08:44:31.908Z,98112.19
2022-12-27T08:46:58.452Z,98132.81
2022-12-27T08:49:25.056Z,98132.56
2022-12-27T08:51:51.492Z,98139.72
2022-12-27T08:54:17.976Z,98145.97
2022-12-27T08:56:44.461Z,98146.97
2022-12-27T08:59:11.007Z,98139.09
2022-12-27T09:01:37.666Z,98167.09
2022-12-27T09:04:04.479Z,98148.28
2022-12-27T09:06:31.062Z,98169.22
2022-12-27T09:08:57.799Z,98165.53
2022-12-27T09:11:28.411Z,98174.09
2022-12-27T09:13:55.022Z,98143.88
2022-12-27T09:16:25.028Z,98131.09
2022-12-27T09:18:52.453Z,98173.63
2022-12-27T09:21:19.739Z,98141.59
2022-12-27T09:23:46.366Z,98150.31
2022-12-27T09:26:17.024Z,98149.03
2022-12-27T09:28:43.803Z,98174.38
2022-12-27T09:31:11.924Z,98176.13
2022-12-27T09:33:38.547Z,98156.69
2022-12-27T09:36:07.396Z,98159.81
2022-12-27T09:38:34.418Z,98175.97
2022-12-27T09:41:02.134Z,98151.38
2022-12-27T09:43:47.103Z,98162.78
2022-12-27T09:46:18.340Z,98162.19
2022-12-27T09:48:44.898Z,98151.19
2022-12-27T09:51:32.972Z,98162.00
2022-12-27T09:54:02.615Z,98163.81
2022-12-27T09:56:47.422Z,98161.97
2022-12-27T09:59:39.331Z,98172.13
2022-12-27T10:02:32.957Z,98159.88
2022-12-27T10:08:10.898Z,98137.75
2022-12-27T10:10:47.018Z,98132.00
2022-12-27T10:13:42.707Z,98161.22
2022-12-27T10:16:28.080Z,98168.88
2022-12-27T10:19:32.172Z,98123.56
2022-12-27T10:22:14.931Z,98123.91
2022-12-27T10:24:47.862Z,98150.09
2022-12-27T10:27:22.847Z,98149.22
2022-12-27T10:29:54.905Z,98128.81
2022-12-27T10:32:21.447Z,98115.53
2022-12-27T10:35:06.817Z,98140.78
2022-12-27T10:37:33.310Z,98135.59
2022-12-27T10:40:35.789Z,98141.13
2022-12-27T10:43:08.459Z,98131.25
2022-12-27T10:45:38.680Z,98131.38
2022-12-27T10:48:17.228Z,98121.38
2022-12-27T10:51:00.709Z,98124.91
2022-12-27T10:53:32.798Z,98134.09
2022-12-27T10:56:20.910Z,98108.88
2022-12-27T10:58:53.003Z,98114.31
2022-12-27T11:01:23.184Z,98132.81
2022-12-27T11:03:50.918Z,98145.34
2022-12-27T11:06:24.904Z,98124.16
2022-12-27T11:08:52.679Z,98131.16
2022-12-27T11:11:22.015Z,98114.94
2022-12-27T11:13:48.769Z,98137.22
2022-12-27T11:16:32.502Z,98116.03
2022-12-27T11:18:59.418Z,98138.00
2022-12-27T11:21:28.158Z,98102.69
2022-12-27T11:24:04.145Z,98110.84
2022-12-27T11:26:34.079Z,98103.31
2022-12-27T11:29:01.200Z,98101.56
2022-12-27T11:31:45.970Z,98124.94
2022-12-27T11:34:21.622Z,98080.22
2022-12-27T11:36:50.008Z,98105.50
2022-12-27T11:39:48.770Z,98105.59
2022-12-27T11:42:26.140Z,98108.06
2022-12-27T11:45:03.477Z,98091.88
2022-12-27T11:47:35.491Z,98101.94
2022-12-27T11:50:27.007Z,98084.38
2022-12-27T11:53:31.041Z,98087.50
2022-12-27T11:56:11.687Z,98091.03
2022-12-27T11:58:41.363Z,98075.69
2022-12-27T12:01:28.610Z,98069.28
2022-12-27T12:04:22.968Z,98054.53
2022-12-27T12:06:58.616Z,98073.66
2022-12-27T12:09:48.101Z,98069.69
2022-12-27T12:12:53.025Z,98077.75
2022-12-27T12:15:47.050Z,98081.72
2022-12-27T12:21:41.262Z,98078.53
2022-12-27T12:24:22.145Z,98082.72
2022-12-27T12:27:03.922Z,98062.06
2022-12-27T12:29:59.290Z,98072.06
2022-12-27T12:32:39.260Z,98064.75
2022-12-27T12:35:25.993Z,98083.34
2022-12-27T12:38:05.852Z,98084.00
2022-12-27T12:40:41.391Z,98090.50
2022-12-27T12:43:21.144Z,98074.50
2022-12-27T12:45:58.062Z,98053.13
2022-12-27T12:48:30.712Z,98077.31
2022-12-27T12:51:21.653Z,98077.34
2022-12-27T12:53:54.483Z,98087.84
2022-12-27T12:56:43.032Z,98056.78
2022-12-27T12:59:40.789Z,98057.06
2022-12-27T13:02:35.705Z,98043.44
2022-12-27T13:05:21.076Z,98079.53
2022-12-27T13:08:16.433Z,98088.06
2022-12-27T13:11:08.483Z,98063.66
2022-12-27T13:13:50.960Z,98066.59
2022-12-27T13:16:30.119Z,98077.81
2022-12-27T13:19:12.874Z,98059.84
2022-12-27T13:21:58.379Z,98056.25
2022-12-27T13:24:46.857Z,98062.44
2022-12-27T13:27:28.639Z,98043.28
2022-12-27T13:30:06.743Z,98070.38
2022-12-27T13:32:58.348Z,98031.56
2022-12-27T13:35:40.138Z,98026.63
2022-12-27T13:38:10.038Z,98047.75
2022-12-27T13:41:00.361Z,98035.06
2022-12-27T13:43:48.997Z,98020.22
2022-12-27T13:46:49.937Z,98041.72
2022-12-27T13:49:31.690Z,98029.09
2022-12-27T13:52:08.074Z,98033.75
2022-12-27T13:54:41.421Z,98022.75
2022-12-27T13:57:29.138Z,98035.41
2022-12-27T14:00:11.131Z,98044.97
2022-12-27T14:02:38.577Z,98053.13
2022-12-27T14:05:19.770Z,98045.09
2022-12-27T14:08:14.444Z,98034.50
2022-12-27T14:10:44.501Z,98047.66
2022-12-27T14:13:11.488Z,98057.78
2022-12-27T14:15:56.894Z,98059.44
2022-12-27T14:18:38.536Z,98045.75
2022-12-27T14:21:26.610Z,98058.06
2022-12-27T14:24:02.661Z,98062.25
2022-12-27T14:26:47.559Z,98066.91
2022-12-27T14:29:51.731Z,98081.66
2022-12-27T14:32:27.044Z,98093.53
2022-12-27T14:35:15.273Z,98043.31
2022-12-27T14:38:26.317Z,98057.94
2022-12-27T14:41:30.424Z,98044.16
2022-12-27T14:44:13.313Z,98093.78
2022-12-27T14:46:45.876Z,98093.03
2022-12-27T14:49:25.571Z,98086.28
2022-12-27T14:52:33.187Z,98080.81
2022-12-27T14:55:26.034Z,98087.75
2022-12-27T14:57:55.297Z,98073.25
2022-12-27T15:00:24.230Z,98066.88
2022-12-27T15:03:09.608Z,98082.72
2022-12-27T15:05:44.246Z,98061.84
2022-12-27T15:08:48.234Z,98079.84
2022-12-27T15:11:42.544Z,98079.28
2022-12-27T15:14:25.318Z,98072.44
2022-12-27T15:17:14.657Z,98070.97
2022-12-27T15:19:59.972Z,98063.13
2022-12-27T15:23:04.723Z,98060.44
2022-12-27T15:25:53.402Z,98074.00
2022-12-27T15:28:32.044Z,98092.38
2022-12-27T15:31:06.665Z,98068.44
2022-12-27T15:34:10.885Z,98077.41
2022-12-27T15:36:39.744Z,98089.81
2022-12-27T15:39:06.800Z,98074.75
2022-12-27T15:41:55.617Z,98076.25
2022-12-27T15:44:25.149Z,98062.50
2022-12-27T15:47:12.512Z,98077.63
2022-12-27T15:49:41.058Z,98090.03
2022-12-27T15:52:18.898Z,98069.00
2022-12-27T15:55:14.586Z,98071.91
2022-12-27T15:58:18.670Z,98064.78
2022-12-27T16:00:45.706Z,98075.81
2022-12-27T16:03:34.875Z,98071.50
2022-12-27T16:06:02.043Z,98079.72
2022-12-27T16:08:28.549Z,98090.03
2022-12-27T16:10:55.918Z,98088.59
2022-12-27T16:13:43.007Z,98066.19
2022-12-27T16:16:28.894Z,98104.63
2022-12-27T16:19:17.343Z,98074.38
2022-12-27T16:21:45.037Z,98096.31
2022-12-27T16:24:14.785Z,98070.94
2022-12-27T16:26:51.724Z,98062.75
2022-12-27T16:29:18.299Z,98086.28
2022-12-27T16:31:47.688Z,98072.25
2022-12-27T16:34:31.067Z,98085.59
2022-12-27T16:36:58.557Z,98077.78
2022-12-27T16:39:31.056Z,98078.06
2022-12-27T16:42:01.155Z,98058.66
2022-12-27T16:44:28.212Z,98077.66
2022-12-27T16:46:56.391Z,98076.06
2022-12-27T16:49:34.872Z,98070.75
2022-12-27T16:52:13.809Z,98079.53
2022-12-27T16:55:11.723Z,98067.47
2022-12-27T16:57:40.475Z,98050.78
2022-12-27T17:00:10.527Z,98093.91
2022-12-27T17:02:37.206Z,98067.16
2022-12-27T17:05:08.561Z,98064.28
2022-12-27T17:07:53.425Z,98070.41
2022-12-27T17:10:29.205Z,98087.13
2022-12-27T17:13:01.314Z,98074.06
2022-12-27T17:15:27.985Z,98077.53
2022-12-27T17:17:55.686Z,98083.69
2022-12-27T17:20:22.974Z,98087.97
2022-12-27T17:22:51.308Z,98084.91
2022-12-27T17:25:21.994Z,98042.44
2022-12-27T17:28:00.771Z,98042.22
2022-12-27T17:30:45.996Z,98053.44
2022-12-27T17:33:18.361Z,98046.72
2022-12-27T17:36:13.013Z,98050.41
2022-12-27T17:39:01.681Z,98072.03
2022-12-27T17:42:05.347Z,98065.66
2022-12-27T17:44:47.019Z,98059.34
2022-12-27T17:47:30.568Z,98052.81
2022-12-27T17:50:05.718Z,98055.06
2022-12-27T17:52:32.307Z,98062.78
2022-12-27T17:55:19.516Z,98045.47
2022-12-27T17:57:46.626Z,98067.47
2022-12-27T18:00:27.383Z,98046.25
2022-12-27T18:02:54.020Z,98079.91
2022-12-27T18:05:27.191Z,98074.63
2022-12-27T18:08:17.700Z,98031.53
2022-12-27T18:10:44.469Z,98054.41
2022-12-27T18:13:14.100Z,98043.13
2022-12-27T18:15:43.629Z,98038.84
2022-12-27T18:18:16.425Z,98069.06
2022-12-27T18:20:43.369Z,98057.22
2022-12-27T18:23:09.858Z,98050.22
2022-12-27T18:25:37.544Z,98077.56
2022-12-27T18:28:16.543Z,98044.50
2022-12-27T18:30:58.925Z,98016.13
2022-12-27T18:33:37.763Z,98030.97
2022-12-27T18:36:05.207Z,98052.81
2022-12-27T18:38:40.006Z,98014.59
2022-12-27T18:41:17.111Z,98024.81
2022-12-27T18:43:45.368Z,98027.09
2022-12-27T18:46:16.870Z,98026.03
2022-12-27T18:48:43.560Z,98025.47
2022-12-27T18:51:10.158Z,98035.69
2022-12-27T18:53:37.970Z,97999.56
2022-12-27T18:56:13.468Z,98017.56
2022-12-27T18:58:40.113Z,98024.47
2022-12-27T19:01:33.451Z,98027.47
2022-12-27T19:04:15.379Z,98025.47
2022-12-27T19:06:45.185Z,98027.94
2022-12-27T19:09:15.307Z,97996.38
2022-12-27T19:11:43.769Z,98005.94
2022-12-27T19:14:12.511Z,97988.88
2022-12-27T19:16:39.103Z,98011.50
2022-12-27T19:19:19.000Z,98014.59
2022-12-27T19:21:45.660Z,97999.13
2022-12-27T19:24:38.676Z,97994.44
2022-12-27T19:27:17.098Z,97980.72
2022-12-27T19:29:50.451Z,97967.06
2022-12-27T19:32:20.464Z,97969.72
2022-12-27T19:34:49.094Z,97981.16
2022-12-27T19:37:15.644Z,97969.53
2022-12-27T19:39:42.410Z,97967.25
2022-12-27T19:42:15.261Z,97970.53
2022-12-27T19:44:42.723Z,97977.63
2022-12-27T19:47:13.081Z,97967.03
2022-12-27T19:49:42.951Z,97967.03
2022-12-27T19:52:16.765Z,97962.31
2022-12-27T19:54:43.366Z,97962.50
2022-12-27T19:57:11.445Z,97962.69
2022-12-27T19:59:38.045Z,97963.13
2022-12-27T20:02:04.849Z,97974.50
2022-12-27T20:04:31.692Z,97970.22
2022-12-27T20:06:58.264Z,97977.94
2022-12-27T20:09:24.805Z,97968.66
2022-12-27T20:11:51.412Z,97993.19
2022-12-27T20:14:18.002Z,97962.34
2022-12-27T20:16:45.759Z,98010.34
2022-12-27T20:19:13.697Z,97999.50
2022-12-27T20:21:40.361Z,97997.50
2022-12-27T20:24:09.657Z,97972.00
2022-12-27T20:26:36.175Z,98003.00
2022-12-27T20:29:02.760Z,97992.78
2022-12-27T20:31:29.435Z,98013.72
2022-12-27T20:33:56.054Z,98006.78
2022-12-27T20:36:23.168Z,98024.94
2022-12-27T20:38:49.718Z,97993.94
2022-12-27T20:41:18.195Z,98005.50
2022-12-27T20:43:44.887Z,98006.78
2022-12-27T20:46:16.154Z,97986.97
2022-12-27T20:48:43.739Z,98007.13
2022-12-27T20:51:12.435Z,97958.41
2022-12-27T20:53:38.976Z,97989.38
2022-12-27T20:56:05.983Z,97984.13
2022-12-27T20:58:32.655Z,97966.19
2022-12-27T21:01:09.865Z,97953.34
2022-12-27T21:03:37.050Z,97964.13
2022-12-27T21:06:11.880Z,97958.41
2022-12-27T21:08:45.574Z,97965.66
2022-12-27T21:11:16.461Z,98005.16
2022-12-27T21:13:43.277Z,97986.88
2022-12-27T21:16:11.105Z,97975.00
2022-12-27T21:18:37.876Z,97954.41
2022-12-27T21:21:07.034Z,97957.97
2022-12-27T21:23:34.553Z,97964.44
2022-12-27T21:26:06.104Z,97951.66
2022-12-27T21:28:33.015Z,97950.03
2022-12-27T21:30:59.636Z,97948.75
2022-12-27T21:33:26.368Z,97940.75
2022-12-27T21:36:01.163Z,97937.25
2022-12-27T21:38:28.125Z,97965.94
2022-12-27T21:41:07.107Z,97937.44
2022-12-27T21:43:33.763Z,97957.81
2022-12-27T21:46:05.312Z,97950.66
2022-12-27T21:48:31.960Z,97931.09
2022-12-27T21:51:08.707Z,97923.53
2022-12-27T21:53:35.384Z,97922.91
2022-12-27T21:56:02.151Z,97940.13
2022-12-27T21:58:33.486Z,97962.38
2022-12-27T22:01:08.864Z,97963.28
2022-12-27T22:03:37.245Z,97931.06
2022-12-27T22:06:14.640Z,97955.59
2022-12-27T22:08:41.666Z,97927.16
2022-12-27T22:11:08.309Z,97916.13
2022-12-27T22:13:35.186Z,97921.81
2022-12-27T22:16:02.600Z,97942.00
2022-12-27T22:18:36.059Z,97923.22
2022-12-27T22:21:04.455Z,97924.50
2022-12-27T22:23:35.249Z,97936.72
2022-12-27T22:26:01.990Z,97899.44
2022-12-27T22:28:28.562Z,97912.63
2022-12-27T22:30:55.250Z,97906.38
2022-12-27T22:33:21.879Z,97917.47
2022-12-27T22:35:48.445Z,97933.03
2022-12-27T22:38:14.975Z,97909.97
2022-12-27T22:40:46.806Z,97905.88
2022-12-27T22:43:13.561Z,97914.56
2022-12-27T22:45:45.525Z,97898.72
2022-12-27T22:48:15.486Z,97888.63
2022-12-27T22:50:42.176Z,97901.22
2022-12-27T22:53:08.906Z,97903.72
2022-12-27T22:55:39.594Z,97958.09
2022-12-27T22:58:06.157Z,97899.88
2022-12-27T23:00:32.719Z,97869.91
2022-12-27T23:02:59.438Z,97902.66
2022-12-27T23:05:25.987Z,97887.13
2022-12-27T23:08:06.160Z,97868.81
2022-12-27T23:10:33.645Z,97885.06
2022-12-27T23:13:00.251Z,97866.41
2022-12-27T23:15:26.914Z,97896.56
2022-12-27T23:17:53.696Z,97889.81
2022-12-27T23:20:20.460Z,97894.72
2022-12-27T23:22:47.038Z,97887.59
2022-12-27T23:25:13.716Z,97864.03
2022-12-27T23:27:40.310Z,97879.25
2022-12-27T23:30:07.315Z,97892.03
2022-12-27T23:32:33.844Z,97870.81
2022-12-27T23:35:00.404Z,97882.03
2022-12-27T23:37:26.957Z,97860.66
2022-12-27T23:39:53.536Z,97893.19
2022-12-27T23:42:20.413Z,97863.53
2022-12-27T23:44:46.935Z,97854.44
2022-12-27T23:47:13.943Z,97849.78
2022-12-27T23:49:40.514Z,97829.66
2022-12-27T23:52:07.047Z,97848.78
2022-12-27T23:54:33.578Z,97856.47
2022-12-27T23:57:22.248Z,97855.88
2022-12-27T23:59:46.799Z,97847.78
